Time;durP1;ratioP1;P1;durP2;ratioP2;P2;SDS_P1;SDS_P2;PMS_P1;PMS_P2;Temp;Humidity;BMP_temperature;BMP_pressure;BME280_temperature;BME280_humidity;BME280_pressure;Samples;Min_cycle;Max_cycle;Signal;HPM_P1;HPM_P2
2023/09/13 00:01:49;;;;;;;4.93;1.30;;;18.70;99.90;;;;;;4215509;28;20461;-84
2023/09/13 00:03:50;;;;;;;3.70;1.35;;;18.80;99.90;;;;;;4214078;28;20103;-84
2023/09/13 00:05:51;;;;;;;4.03;1.05;;;18.60;99.90;;;;;;4215066;28;20097;-83
2023/09/13 00:07:51;;;;;;;4.95;1.13;;;18.60;99.90;;;;;;4196653;28;20476;-84
2023/09/13 00:09:52;;;;;;;10.77;1.10;;;18.60;99.90;;;;;;4215305;28;20040;-84
2023/09/13 00:11:53;;;;;;;4.32;0.98;;;18.70;99.90;;;;;;4225124;28;20053;-84
2023/09/13 00:13:53;;;;;;;5.15;0.80;;;18.60;99.90;;;;;;4231719;28;20096;-84
2023/09/13 00:15:55;;;;;;;11.55;1.70;;;18.60;99.90;;;;;;4238676;27;20104;-83
2023/09/13 00:17:55;;;;;;;4.70;1.10;;;18.60;99.90;;;;;;4248753;27;20074;-84
2023/09/13 00:19:56;;;;;;;6.45;1.08;;;18.60;99.90;;;;;;4248651;27;20476;-84
2023/09/13 00:21:57;;;;;;;6.35;1.02;;;18.50;99.90;;;;;;4230035;28;20105;-84
2023/09/13 00:23:58;;;;;;;5.30;1.23;;;18.60;99.90;;;;;;4211941;28;20496;-83
2023/09/13 00:25:59;;;;;;;3.88;1.00;;;18.20;99.90;;;;;;4231115;28;20040;-83
2023/09/13 00:28:00;;;;;;;3.65;1.45;;;18.50;99.90;;;;;;4231587;28;20078;-83
2023/09/13 00:30:01;;;;;;;7.63;1.08;;;18.50;99.90;;;;;;4231274;28;20372;-83
2023/09/13 00:32:02;;;;;;;7.63;1.40;;;18.50;99.90;;;;;;4213522;28;20085;-83
2023/09/13 00:34:03;;;;;;;5.72;1.20;;;18.50;99.90;;;;;;4196129;28;20049;-83
2023/09/13 00:36:04;;;;;;;6.07;1.60;;;18.50;99.90;;;;;;4196795;28;20044;-83
2023/09/13 00:38:05;;;;;;;6.95;1.40;;;18.40;99.90;;;;;;4213339;28;20403;-84
2023/09/13 00:40:07;;;;;;;6.05;1.38;;;18.40;99.90;;;;;;4231451;28;20488;-83
2023/09/13 00:42:08;;;;;;;9.80;1.30;;;18.40;99.90;;;;;;4231414;28;20043;-83
2023/09/13 00:44:09;;;;;;;9.73;1.42;;;18.40;99.90;;;;;;4231710;28;20047;-83
2023/09/13 00:46:10;;;;;;;5.40;1.30;;;18.40;99.90;;;;;;4231323;28;20044;-83
2023/09/13 00:48:11;;;;;;;5.78;1.00;;;18.40;99.90;;;;;;4213005;28;20043;-83
2023/09/13 00:50:15;;;;;;;3.58;1.00;;;18.40;99.90;;;;;;4213148;28;20156;-83
2023/09/13 00:52:19;;;;;;;13.15;2.00;;;17.70;99.90;;;;;;4213465;28;20056;-83
2023/09/13 00:54:20;;;;;;;6.50;1.42;;;18.40;99.90;;;;;;4213178;28;20583;-83
2023/09/13 00:56:22;;;;;;;3.55;0.98;;;18.30;99.90;;;;;;4230945;28;20058;-83
2023/09/13 00:58:23;;;;;;;9.93;1.33;;;18.30;99.90;;;;;;4213100;28;20538;-82
2023/09/13 01:00:27;;;;;;;9.27;1.13;;;18.30;99.90;;;;;;4213108;28;20052;-83
2023/09/13 01:02:28;;;;;;;10.40;1.30;;;18.20;99.90;;;;;;4212911;28;20470;-83
2023/09/13 01:04:28;;;;;;;8.10;1.73;;;17.80;99.90;;;;;;4212687;28;20132;-82
2023/09/13 01:06:29;;;;;;;9.10;1.20;;;18.20;99.90;;;;;;4230165;28;20051;-82
2023/09/13 01:08:31;;;;;;;3.53;1.42;;;18.10;99.90;;;;;;4231159;28;20051;-82
2023/09/13 01:10:32;;;;;;;4.07;1.25;;;18.10;99.90;;;;;;4213031;28;20079;-82
2023/09/13 01:12:33;;;;;;;7.20;1.38;;;18.10;99.90;;;;;;4231401;28;20054;-83
2023/09/13 01:14:34;;;;;;;4.32;1.13;;;18.10;99.90;;;;;;4231312;28;20047;-83
2023/09/13 01:16:48;;;;;;;6.55;0.85;;;18.00;99.90;;;;;;4230743;28;20108;-82
2023/09/13 01:19:16;;;;;;;7.43;1.40;;;18.00;99.90;;;;;;4231496;28;20044;-82
2023/09/13 01:21:32;;;;;;;8.70;1.10;;;18.50;99.90;;;;;;4231222;28;20083;-82
2023/09/13 01:23:45;;;;;;;3.83;1.13;;;17.80;99.90;;;;;;4231299;28;20122;-84
2023/09/13 01:25:48;;;;;;;7.65;1.30;;;18.00;99.90;;;;;;4231056;28;20048;-83
2023/09/13 01:28:15;;;;;;;8.63;0.80;;;18.00;99.90;;;;;;4231152;28;20040;-82
2023/09/13 01:30:17;;;;;;;2.60;1.20;;;18.00;99.90;;;;;;4247195;28;20047;-83
2023/09/13 01:32:19;;;;;;;1.58;0.75;;;18.00;99.90;;;;;;4250305;28;20042;-83
2023/09/13 01:34:19;;;;;;;2.97;0.90;;;18.00;99.90;;;;;;4240157;28;20427;-83
2023/09/13 01:36:20;;;;;;;5.28;1.08;;;18.00;99.90;;;;;;4231117;28;20127;-83
2023/09/13 01:38:21;;;;;;;3.42;0.80;;;18.00;99.90;;;;;;4231609;28;20096;-83
2023/09/13 01:40:26;;;;;;;6.45;1.33;;;18.00;99.90;;;;;;4234301;28;20899;-83
2023/09/13 01:42:30;;;;;;;4.25;1.10;;;18.00;99.90;;;;;;4234423;28;20136;-83
2023/09/13 01:44:31;;;;;;;6.13;1.70;;;18.00;99.90;;;;;;4234351;28;20419;-82
2023/09/13 01:46:35;;;;;;;4.28;1.50;;;17.90;99.90;;;;;;4234100;28;20035;-82
2023/09/13 01:48:37;;;;;;;4.68;1.00;;;17.90;99.90;;;;;;4216123;28;20079;-82
2023/09/13 01:50:39;;;;;;;5.55;1.20;;;17.90;99.90;;;;;;4234409;28;20040;-82
2023/09/13 01:52:40;;;;;;;8.93;1.15;;;17.90;99.90;;;;;;4234299;28;20056;-82
2023/09/13 01:54:41;;;;;;;3.10;0.93;;;17.90;99.90;;;;;;4215702;28;20075;-83
2023/09/13 01:56:42;;;;;;;3.45;1.30;;;17.90;99.90;;;;;;4234223;28;20051;-82
2023/09/13 01:58:43;;;;;;;9.55;1.67;;;17.90;99.90;;;;;;4234236;28;20118;-82
2023/09/13 02:00:44;;;;;;;7.70;1.42;;;17.80;99.90;;;;;;4233730;28;20039;-82
2023/09/13 02:02:44;;;;;;;6.38;0.90;;;17.80;99.90;;;;;;4215965;28;20531;-82
2023/09/13 02:04:45;;;;;;;9.40;1.20;;;17.80;99.90;;;;;;4233819;28;20047;-82
2023/09/13 02:06:48;;;;;;;8.27;1.10;;;17.80;99.90;;;;;;4216050;28;20040;-82
2023/09/13 02:08:48;;;;;;;5.65;1.23;;;17.70;99.90;;;;;;4233953;28;20504;-82
2023/09/13 02:10:49;;;;;;;3.85;1.13;;;17.70;99.90;;;;;;4198832;28;20044;-82
2023/09/13 02:12:50;;;;;;;10.35;1.10;;;17.80;99.90;;;;;;4215822;28;20048;-82
2023/09/13 02:14:51;;;;;;;3.70;1.15;;;17.70;99.90;;;;;;4233820;28;20044;-82
2023/09/13 02:16:52;;;;;;;3.40;0.80;;;17.70;99.90;;;;;;4214901;28;20064;-82
2023/09/13 02:18:52;;;;;;;9.57;1.15;;;17.70;99.90;;;;;;4216016;28;20043;-82
2023/09/13 02:20:53;;;;;;;4.28;1.25;;;17.70;99.90;;;;;;4216683;28;20055;-82
2023/09/13 02:22:54;;;;;;;6.78;1.25;;;17.70;99.90;;;;;;4216885;28;20066;-82
2023/09/13 02:24:54;;;;;;;4.57;1.17;;;17.70;99.90;;;;;;4216696;28;20046;-82
2023/09/13 02:26:56;;;;;;;7.07;1.00;;;17.70;99.90;;;;;;4215373;28;20044;-82
2023/09/13 02:28:58;;;;;;;2.33;0.73;;;17.70;99.90;;;;;;4216855;28;20389;-82
2023/09/13 02:30:59;;;;;;;2.63;1.10;;;17.70;99.90;;;;;;4216805;28;20051;-82
2023/09/13 02:33:00;;;;;;;10.80;1.58;;;17.70;99.90;;;;;;4216787;28;20498;-82
2023/09/13 02:35:01;;;;;;;4.57;1.27;;;17.70;99.90;;;;;;4216267;28;20044;-82
2023/09/13 02:37:01;;;;;;;7.03;1.15;;;17.70;99.90;;;;;;4216829;28;20091;-83
2023/09/13 02:39:03;;;;;;;6.38;1.08;;;17.60;99.90;;;;;;4215641;28;20044;-82
2023/09/13 02:41:04;;;;;;;5.70;1.33;;;17.70;99.90;;;;;;4217042;28;20107;-82
2023/09/13 02:43:05;;;;;;;7.20;1.10;;;17.60;99.90;;;;;;4217304;28;20040;-82
2023/09/13 02:45:06;;;;;;;8.93;1.40;;;17.60;99.90;;;;;;4217405;28;20044;-83
2023/09/13 02:47:07;;;;;;;4.30;1.00;;;17.70;99.90;;;;;;4215690;28;20043;-83
2023/09/13 02:49:07;;;;;;;4.10;0.98;;;17.70;99.90;;;;;;4216252;28;20051;-83
2023/09/13 02:51:13;;;;;;;4.00;1.40;;;17.70;99.90;;;;;;4215869;28;20070;-83
2023/09/13 02:53:13;;;;;;;5.22;1.00;;;17.60;99.90;;;;;;4216516;28;20056;-83
2023/09/13 02:55:14;;;;;;;5.72;1.20;;;17.60;99.90;;;;;;4216571;28;20083;-83
2023/09/13 02:57:15;;;;;;;8.68;1.50;;;17.60;99.90;;;;;;4215272;28;20036;-83
2023/09/13 02:59:16;;;;;;;8.13;1.98;;;17.60;99.90;;;;;;4216896;28;20036;-83
2023/09/13 03:01:17;;;;;;;10.10;1.50;;;17.60;99.90;;;;;;4215894;28;20040;-83
2023/09/13 03:03:17;;;;;;;10.75;2.25;;;17.60;99.90;;;;;;4216998;28;20040;-83
2023/09/13 03:05:18;;;;;;;9.25;1.00;;;17.50;99.90;;;;;;4217245;28;20051;-83
2023/09/13 03:07:19;;;;;;;7.03;0.90;;;17.50;99.90;;;;;;4217267;28;20055;-83
2023/09/13 03:09:20;;;;;;;7.07;1.50;;;17.50;99.90;;;;;;4224765;28;20055;-81
2023/09/13 03:11:21;;;;;;;5.97;1.25;;;17.40;99.90;;;;;;4230184;28;20514;-82
2023/09/13 03:13:21;;;;;;;5.47;0.98;;;17.40;99.90;;;;;;4225460;28;20083;-82
2023/09/13 03:15:22;;;;;;;5.22;1.17;;;17.40;99.90;;;;;;4214953;28;20050;-83
2023/09/13 03:17:23;;;;;;;4.93;0.90;;;17.40;99.90;;;;;;4215965;28;20044;-83
2023/09/13 03:19:24;;;;;;;6.25;1.45;;;17.40;99.90;;;;;;4214510;28;20071;-82
2023/09/13 03:21:25;;;;;;;4.70;1.30;;;17.40;99.90;;;;;;4215963;28;20089;-83
2023/09/13 03:23:25;;;;;;;5.80;1.50;;;17.30;99.90;;;;;;4214856;28;20895;-82
2023/09/13 03:25:26;;;;;;;3.13;0.95;;;17.30;99.90;;;;;;4214933;28;20036;-82
2023/09/13 03:27:27;;;;;;;10.15;1.30;;;17.30;99.90;;;;;;4217939;28;20709;-82
2023/09/13 03:29:28;;;;;;;3.35;0.82;;;17.30;99.90;;;;;;4216624;28;20731;-83
2023/09/13 03:31:30;;;;;;;9.80;0.90;;;17.30;99.90;;;;;;4227702;28;20150;-82
2023/09/13 03:33:30;;;;;;;7.78;1.08;;;17.30;99.90;;;;;;4217085;28;20044;-83
2023/09/13 03:35:31;;;;;;;4.90;0.80;;;17.30;99.90;;;;;;4217639;28;20491;-83
2023/09/13 03:37:33;;;;;;;2.88;0.85;;;17.30;99.90;;;;;;4225732;28;20051;-82
2023/09/13 03:39:35;;;;;;;3.47;0.82;;;17.30;99.90;;;;;;4217268;28;20396;-83
2023/09/13 03:41:37;;;;;;;6.80;1.40;;;17.30;99.90;;;;;;4218103;28;20086;-82
2023/09/13 03:43:38;;;;;;;4.35;0.90;;;17.30;99.90;;;;;;4218454;28;20051;-82
2023/09/13 03:45:38;;;;;;;5.35;1.20;;;17.20;99.90;;;;;;4217924;28;20044;-82
2023/09/13 03:47:43;;;;;;;7.43;1.05;;;17.20;99.90;;;;;;4217794;28;20056;-83
2023/09/13 03:49:43;;;;;;;5.25;1.17;;;17.20;99.90;;;;;;4218578;28;20086;-83
2023/09/13 03:51:44;;;;;;;4.53;0.85;;;17.20;99.90;;;;;;4218471;28;20051;-83
2023/09/13 03:53:45;;;;;;;3.42;0.70;;;17.20;99.90;;;;;;4219264;28;20054;-84
2023/09/13 03:55:46;;;;;;;5.28;1.02;;;17.10;99.90;;;;;;4216902;28;20067;-82
2023/09/13 03:57:47;;;;;;;11.48;1.15;;;17.10;99.90;;;;;;4217567;28;20039;-82
2023/09/13 03:59:47;;;;;;;4.47;0.85;;;17.10;99.90;;;;;;4217609;28;20075;-83
2023/09/13 04:01:48;;;;;;;8.35;2.03;;;17.10;99.90;;;;;;4214956;28;20040;-82
2023/09/13 04:03:51;;;;;;;5.38;0.95;;;17.10;99.90;;;;;;4216395;28;20048;-82
2023/09/13 04:05:52;;;;;;;4.82;1.00;;;17.10;99.90;;;;;;4219319;28;20043;-82
2023/09/13 04:07:53;;;;;;;4.40;1.15;;;17.00;99.90;;;;;;4231149;28;20048;-82
2023/09/13 04:09:54;;;;;;;6.65;1.52;;;17.00;99.90;;;;;;4226164;28;20036;-83
2023/09/13 04:11:55;;;;;;;7.57;0.95;;;17.00;99.90;;;;;;4216098;28;20048;-82
2023/09/13 04:13:56;;;;;;;8.18;2.75;;;17.00;99.90;;;;;;4215381;28;20032;-82
2023/09/13 04:16:06;;;;;;;10.50;2.00;;;17.00;99.90;;;;;;4224002;28;20047;-82
2023/09/13 04:18:08;;;;;;;10.63;1.13;;;17.00;99.90;;;;;;4233175;28;20436;-82
2023/09/13 04:20:10;;;;;;;6.32;1.73;;;17.00;99.90;;;;;;4232909;28;20506;-83
2023/09/13 04:22:13;;;;;;;8.63;1.13;;;16.90;99.90;;;;;;4231933;28;20090;-83
2023/09/13 04:24:14;;;;;;;7.93;1.10;;;16.90;99.90;;;;;;4232326;28;20426;-82
2023/09/13 04:26:20;;;;;;;6.10;1.27;;;16.90;99.90;;;;;;4214158;28;20071;-82
2023/09/13 04:28:21;;;;;;;7.22;0.95;;;16.80;99.90;;;;;;4232437;28;20119;-83
2023/09/13 04:30:21;;;;;;;10.13;1.40;;;16.80;99.90;;;;;;4196709;28;20044;-82
2023/09/13 04:32:24;;;;;;;4.85;0.90;;;16.80;99.90;;;;;;4232208;28;20109;-83
2023/09/13 04:34:25;;;;;;;6.95;1.08;;;16.80;99.90;;;;;;4231802;28;20044;-83
2023/09/13 04:36:26;;;;;;;7.47;1.75;;;16.70;99.90;;;;;;4214275;28;20047;-83
2023/09/13 04:38:26;;;;;;;8.05;1.23;;;16.80;99.90;;;;;;4246260;27;20046;-83
2023/09/13 04:40:27;;;;;;;4.10;1.10;;;16.70;99.90;;;;;;4248841;27;20039;-83
2023/09/13 04:42:28;;;;;;;3.90;1.38;;;16.70;99.90;;;;;;4213422;28;20136;-83
2023/09/13 04:44:30;;;;;;;4.93;1.50;;;16.60;99.90;;;;;;4230655;28;20055;-82
2023/09/13 04:46:31;;;;;;;7.20;1.17;;;16.60;99.90;;;;;;4230225;28;20043;-83
2023/09/13 04:48:31;;;;;;;7.35;1.20;;;16.50;99.90;;;;;;4248437;27;20518;-83
2023/09/13 04:50:32;;;;;;;5.65;1.38;;;16.50;99.90;;;;;;4248487;27;20051;-83
2023/09/13 04:52:33;;;;;;;6.80;1.05;;;16.40;99.90;;;;;;4213594;28;20101;-83
2023/09/13 04:54:34;;;;;;;3.97;1.48;;;16.40;99.90;;;;;;4227666;28;20844;-83
2023/09/13 04:56:35;;;;;;;5.88;1.35;;;16.30;99.90;;;;;;4231609;28;20583;-83
2023/09/13 04:58:36;;;;;;;9.15;1.25;;;16.20;99.90;;;;;;4213482;28;20051;-82
2023/09/13 05:00:37;;;;;;;7.25;2.50;;;16.20;99.90;;;;;;4196781;28;20048;-83
2023/09/13 05:02:38;;;;;;;9.00;1.58;;;16.10;99.90;;;;;;4213305;28;20502;-83
2023/09/13 05:04:39;;;;;;;5.10;1.20;;;16.10;99.90;;;;;;4213347;28;20051;-83
2023/09/13 05:06:40;;;;;;;6.95;1.60;;;16.10;99.90;;;;;;4213548;28;20511;-83
2023/09/13 05:08:40;;;;;;;8.23;1.50;;;16.10;99.90;;;;;;4212980;28;20048;-83
2023/09/13 05:10:44;;;;;;;6.80;2.08;;;16.00;99.90;;;;;;4230810;28;20058;-83
2023/09/13 05:12:48;;;;;;;8.48;2.05;;;16.10;99.90;;;;;;4230526;28;20044;-83
2023/09/13 05:14:49;;;;;;;8.98;1.98;;;16.00;99.90;;;;;;4212876;28;20048;-83
2023/09/13 05:16:50;;;;;;;8.45;1.85;;;16.00;99.90;;;;;;4212819;28;20052;-82
2023/09/13 05:18:50;;;;;;;5.45;1.42;;;16.00;99.90;;;;;;4230737;28;20047;-83
2023/09/13 05:20:51;;;;;;;5.65;1.98;;;16.00;99.90;;;;;;4231205;28;20048;-83
2023/09/13 05:22:52;;;;;;;4.30;1.55;;;15.90;99.90;;;;;;4212821;28;20105;-83
2023/09/13 05:24:52;;;;;;;7.65;1.58;;;15.90;99.90;;;;;;4231206;28;20032;-83
2023/09/13 05:26:54;;;;;;;9.57;2.20;;;15.90;99.90;;;;;;4219659;28;20073;-82
2023/09/13 05:28:55;;;;;;;8.68;1.30;;;15.80;99.90;;;;;;4225110;28;20094;-82
2023/09/13 05:30:56;;;;;;;7.05;2.08;;;16.00;99.90;;;;;;4216927;28;20035;-82
2023/09/13 05:32:56;;;;;;;6.55;1.30;;;15.80;99.90;;;;;;4247964;28;20118;-82
2023/09/13 05:35:00;;;;;;;6.95;1.27;;;15.80;99.90;;;;;;4248148;28;20070;-83
2023/09/13 05:37:00;;;;;;;6.88;1.52;;;15.80;99.90;;;;;;4229748;28;20578;-83
2023/09/13 05:39:03;;;;;;;6.47;1.27;;;15.80;99.90;;;;;;4229744;28;20089;-83
2023/09/13 05:41:07;;;;;;;8.57;1.10;;;15.80;99.90;;;;;;4230048;28;20043;-83
2023/09/13 05:43:11;;;;;;;12.13;3.33;;;15.80;99.90;;;;;;4230368;28;20085;-83
2023/09/13 05:45:12;;;;;;;12.90;2.45;;;15.80;99.90;;;;;;4229573;28;20047;-82
2023/09/13 05:47:12;;;;;;;6.85;1.52;;;15.80;99.90;;;;;;4229525;28;20055;-83
2023/09/13 05:49:13;;;;;;;8.95;1.77;;;15.80;99.90;;;;;;4229300;28;20185;-82
2023/09/13 05:51:14;;;;;;;9.20;1.60;;;15.20;99.90;;;;;;4247802;28;20047;-82
2023/09/13 05:53:15;;;;;;;10.68;2.20;;;15.70;99.90;;;;;;4248096;28;20118;-82
2023/09/13 05:55:16;;;;;;;12.88;1.33;;;15.70;99.90;;;;;;4247501;28;20077;-82
2023/09/13 05:57:17;;;;;;;4.35;1.48;;;15.70;99.90;;;;;;4212614;28;20126;-82
2023/09/13 05:59:17;;;;;;;9.48;2.00;;;15.70;99.90;;;;;;4247623;28;20400;-82
2023/09/13 06:01:18;;;;;;;11.90;2.45;;;15.70;99.90;;;;;;4229898;28;20105;-84
2023/09/13 06:03:20;;;;;;;14.43;2.20;;;15.70;99.90;;;;;;4230393;28;20131;-84
2023/09/13 06:05:21;;;;;;;13.07;2.63;;;15.70;99.90;;;;;;4248046;28;20039;-83
2023/09/13 06:07:24;;;;;;;11.25;1.75;;;15.70;99.90;;;;;;4229592;28;20436;-84
2023/09/13 06:09:25;;;;;;;8.75;2.13;;;15.70;99.90;;;;;;4246606;28;20141;-84
2023/09/13 06:11:25;;;;;;;13.35;2.75;;;15.70;99.90;;;;;;4219999;28;20040;-84
2023/09/13 06:13:26;;;;;;;8.07;2.30;;;15.70;99.90;;;;;;4247159;28;20040;-83
2023/09/13 06:15:27;;;;;;;10.65;2.50;;;15.70;99.90;;;;;;4229091;28;20055;-84
2023/09/13 06:17:28;;;;;;;7.95;1.85;;;15.70;99.90;;;;;;4228887;28;20056;-84
2023/09/13 06:19:28;;;;;;;14.10;2.45;;;15.70;99.90;;;;;;4229236;28;20055;-84
2023/09/13 06:21:29;;;;;;;14.60;2.47;;;15.70;99.90;;;;;;4229315;28;20055;-84
2023/09/13 06:23:35;;;;;;;10.95;2.47;;;15.70;99.90;;;;;;4229488;28;20535;-83
2023/09/13 06:25:36;;;;;;;11.20;2.20;;;15.70;99.90;;;;;;4231733;28;20044;-84
2023/09/13 06:27:36;;;;;;;8.77;3.00;;;15.70;99.90;;;;;;4232490;28;20092;-84
2023/09/13 06:29:37;;;;;;;13.82;2.42;;;15.70;99.90;;;;;;4232108;28;20153;-84
2023/09/13 06:31:38;;;;;;;10.23;1.95;;;15.70;99.90;;;;;;4232692;28;20128;-84
2023/09/13 06:33:41;;;;;;;11.10;2.88;;;15.60;99.90;;;;;;4232679;28;20047;-84
2023/09/13 06:35:51;;;;;;;10.75;1.80;;;15.70;99.90;;;;;;4250811;27;20043;-83
2023/09/13 06:37:52;;;;;;;14.57;2.75;;;15.60;99.90;;;;;;4250538;27;20043;-84
2023/09/13 06:39:54;;;;;;;11.98;2.22;;;15.70;99.90;;;;;;4232591;28;20130;-84
2023/09/13 06:41:54;;;;;;;9.73;1.60;;;15.70;99.90;;;;;;4249899;27;20114;-84
2023/09/13 06:43:55;;;;;;;8.50;1.80;;;15.70;99.90;;;;;;4250572;27;20035;-84
2023/09/13 06:46:02;;;;;;;12.98;2.03;;;15.70;99.90;;;;;;4231962;28;20052;-84
2023/09/13 06:48:03;;;;;;;13.98;3.67;;;15.70;99.90;;;;;;4250461;27;20118;-84
2023/09/13 06:50:04;;;;;;;9.80;2.03;;;15.70;99.90;;;;;;4232015;28;20589;-84
2023/09/13 06:52:05;;;;;;;9.23;1.73;;;15.70;99.90;;;;;;4250530;27;20039;-84
2023/09/13 06:54:06;;;;;;;12.65;2.15;;;15.70;99.90;;;;;;4231562;28;20046;-84
2023/09/13 06:56:08;;;;;;;11.45;2.55;;;15.80;99.90;;;;;;4232264;28;20046;-84
2023/09/13 06:58:09;;;;;;;14.80;1.83;;;15.80;99.90;;;;;;4250335;27;20480;-84
2023/09/13 07:00:10;;;;;;;6.75;1.75;;;15.80;99.90;;;;;;4250305;27;20125;-84
2023/09/13 07:02:11;;;;;;;8.50;2.38;;;15.70;99.90;;;;;;4249423;27;20176;-84
2023/09/13 07:04:13;;;;;;;5.20;1.40;;;15.70;99.90;;;;;;4249828;27;20039;-83
2023/09/13 07:06:14;;;;;;;7.68;1.25;;;15.70;99.90;;;;;;4232121;28;20089;-84
2023/09/13 07:08:14;;;;;;;5.07;1.20;;;15.70;99.90;;;;;;4231909;28;20101;-85
2023/09/13 07:10:15;;;;;;;6.15;1.35;;;15.70;99.90;;;;;;4241768;27;20046;-84
2023/09/13 07:12:16;;;;;;;5.85;1.30;;;15.70;99.90;;;;;;4249479;27;20495;-84
2023/09/13 07:14:18;;;;;;;8.70;1.88;;;15.80;99.90;;;;;;4249947;27;20035;-84
2023/09/13 07:16:18;;;;;;;6.03;1.17;;;15.80;99.90;;;;;;4249400;27;20136;-84
2023/09/13 07:18:19;;;;;;;3.03;0.90;;;15.80;99.90;;;;;;4250081;27;20051;-84
2023/09/13 07:20:20;;;;;;;4.32;1.42;;;15.90;99.90;;;;;;4249652;27;20046;-84
2023/09/13 07:22:21;;;;;;;1.65;0.80;;;16.00;99.90;;;;;;4250069;27;20035;-84
2023/09/13 07:24:21;;;;;;;6.18;1.40;;;16.00;99.90;;;;;;4249940;27;20043;-84
2023/09/13 07:26:22;;;;;;;4.63;1.48;;;16.10;99.90;;;;;;4249559;27;20043;-84
2023/09/13 07:28:26;;;;;;;9.43;1.20;;;16.10;99.90;;;;;;4231267;28;20039;-84
2023/09/13 07:30:27;;;;;;;4.72;1.00;;;16.20;99.90;;;;;;4249888;27;20050;-84
2023/09/13 07:32:28;;;;;;;7.90;1.55;;;16.20;99.90;;;;;;4249723;27;20426;-84
2023/09/13 07:34:29;;;;;;;4.93;1.27;;;16.30;99.90;;;;;;4249598;27;20039;-85
2023/09/13 07:36:30;;;;;;;6.47;1.13;;;16.30;99.90;;;;;;4248291;27;20042;-84
2023/09/13 07:38:30;;;;;;;10.55;1.48;;;16.30;99.90;;;;;;4249665;27;20039;-84
2023/09/13 07:40:31;;;;;;;10.25;1.48;;;16.30;99.90;;;;;;4249555;27;20043;-84
2023/09/13 07:42:32;;;;;;;6.18;1.10;;;16.30;99.90;;;;;;4249388;27;20047;-84
2023/09/13 07:44:33;;;;;;;4.15;1.27;;;16.30;99.90;;;;;;4249108;27;20035;-84
2023/09/13 07:46:33;;;;;;;6.35;1.75;;;16.30;99.90;;;;;;4241556;27;20478;-84
2023/09/13 07:48:34;;;;;;;7.70;1.77;;;16.30;99.90;;;;;;4235904;27;20050;-84
2023/09/13 07:50:38;;;;;;;9.82;1.45;;;16.30;99.90;;;;;;4232124;28;20396;-84
2023/09/13 07:52:39;;;;;;;6.25;1.60;;;16.30;99.90;;;;;;4246858;27;20043;-84
2023/09/13 07:54:40;;;;;;;4.35;1.88;;;16.30;99.90;;;;;;4231032;28;20077;-82
2023/09/13 07:56:40;;;;;;;9.05;1.50;;;16.90;99.90;;;;;;4249333;27;20039;-82
2023/09/13 07:58:41;;;;;;;10.85;1.90;;;16.40;99.90;;;;;;4230827;28;20082;-82
2023/09/13 08:00:43;;;;;;;4.93;1.15;;;16.40;99.90;;;;;;4248793;27;20058;-82
2023/09/13 08:02:46;;;;;;;9.00;1.30;;;16.40;99.90;;;;;;4230868;28;20524;-82
2023/09/13 08:04:49;;;;;;;5.75;1.20;;;16.40;99.90;;;;;;4230996;28;20431;-83
2023/09/13 08:06:50;;;;;;;8.05;1.63;;;16.40;99.90;;;;;;4248858;27;20044;-83
2023/09/13 08:08:52;;;;;;;6.47;1.95;;;16.50;99.90;;;;;;4248825;27;20077;-84
2023/09/13 08:10:53;;;;;;;11.82;1.60;;;16.40;99.90;;;;;;4249272;27;20096;-83
2023/09/13 08:12:54;;;;;;;8.75;1.48;;;16.30;99.90;;;;;;4229300;27;20104;-84
2023/09/13 08:14:55;;;;;;;7.47;1.83;;;16.40;99.90;;;;;;4248596;27;20183;-83
2023/09/13 08:16:55;;;;;;;4.72;1.40;;;16.40;99.90;;;;;;4248286;27;20551;-83
2023/09/13 08:18:56;;;;;;;8.32;1.65;;;16.50;99.90;;;;;;4248478;27;20065;-83
2023/09/13 08:20:59;;;;;;;6.75;1.35;;;16.60;99.90;;;;;;4248628;27;20047;-84
2023/09/13 08:23:00;;;;;;;12.25;2.00;;;16.60;99.90;;;;;;4248917;27;20046;-84
2023/09/13 08:25:01;;;;;;;7.95;1.70;;;16.70;99.90;;;;;;4230482;28;20047;-84
2023/09/13 08:27:02;;;;;;;9.93;1.52;;;16.80;99.90;;;;;;4242703;27;20483;-84
2023/09/13 08:29:03;;;;;;;11.63;1.50;;;16.90;99.90;;;;;;4248360;27;20487;-84
2023/09/13 08:31:04;;;;;;;5.72;1.08;;;17.00;99.90;;;;;;4248727;27;20096;-84
2023/09/13 08:33:06;;;;;;;7.10;1.38;;;17.10;99.90;;;;;;4248886;27;20035;-84
2023/09/13 08:35:07;;;;;;;8.20;1.30;;;17.10;99.90;;;;;;4229658;28;20040;-84
2023/09/13 08:37:08;;;;;;;8.25;1.52;;;17.10;99.90;;;;;;4248040;27;20137;-84
2023/09/13 08:39:09;;;;;;;7.93;1.10;;;17.20;99.90;;;;;;4248113;27;20049;-84
2023/09/13 08:41:10;;;;;;;8.43;2.05;;;17.10;99.90;;;;;;4230300;28;20453;-84
2023/09/13 08:43:12;;;;;;;6.95;1.55;;;17.20;99.90;;;;;;4248314;27;20376;-84
2023/09/13 08:45:13;;;;;;;7.00;1.52;;;17.20;99.90;;;;;;4248393;27;20042;-84
2023/09/13 08:47:14;;;;;;;9.00;1.13;;;17.20;99.90;;;;;;4248188;27;20039;-84
2023/09/13 08:49:17;;;;;;;10.25;2.33;;;17.20;99.90;;;;;;4229770;28;20048;-84
2023/09/13 08:51:20;;;;;;;7.00;2.13;;;17.30;99.90;;;;;;4248423;27;20118;-84
2023/09/13 08:53:22;;;;;;;9.73;1.55;;;17.40;99.90;;;;;;4248284;27;20399;-84
2023/09/13 08:55:23;;;;;;;7.00;1.15;;;17.50;99.90;;;;;;4248248;27;20460;-84
2023/09/13 08:57:25;;;;;;;5.85;1.65;;;17.70;99.90;;;;;;4230418;28;20055;-84
2023/09/13 08:59:27;;;;;;;10.35;1.70;;;17.80;99.90;;;;;;4247968;27;20039;-84
2023/09/13 09:01:30;;;;;;;5.55;1.88;;;17.80;99.90;;;;;;4247391;27;20043;-84
2023/09/13 09:03:32;;;;;;;11.30;1.90;;;17.80;99.90;;;;;;4248232;27;20050;-84
2023/09/13 09:05:34;;;;;;;8.05;1.45;;;17.70;99.90;;;;;;4229689;28;20102;-84
2023/09/13 09:07:36;;;;;;;4.90;1.02;;;17.50;99.90;;;;;;4248121;27;20387;-84
2023/09/13 09:09:38;;;;;;;11.45;1.42;;;17.40;99.90;;;;;;4248180;27;20066;-84
2023/09/13 09:11:42;;;;;;;8.68;2.10;;;17.30;99.90;;;;;;4248139;27;20399;-84
2023/09/13 09:13:45;;;;;;;9.77;1.90;;;17.20;99.90;;;;;;4247422;27;20096;-84
2023/09/13 09:15:46;;;;;;;8.95;1.88;;;17.20;99.90;;;;;;4247710;27;20507;-84
2023/09/13 09:17:49;;;;;;;6.07;1.88;;;17.20;99.90;;;;;;4247786;27;20050;-84
2023/09/13 09:19:50;;;;;;;11.85;2.00;;;17.20;99.90;;;;;;4229820;28;20031;-84
2023/09/13 09:21:51;;;;;;;9.18;1.65;;;17.20;99.90;;;;;;4247478;27;20491;-84
2023/09/13 09:23:53;;;;;;;7.25;1.55;;;17.20;99.90;;;;;;4248085;27;20050;-84
2023/09/13 09:25:54;;;;;;;7.43;2.05;;;17.30;99.90;;;;;;4229814;28;20040;-83
2023/09/13 09:27:55;;;;;;;10.55;1.73;;;17.20;99.90;;;;;;4212796;28;20087;-84
2023/09/13 09:30:03;;;;;;;7.60;1.63;;;17.30;99.90;;;;;;4247726;28;20047;-84
2023/09/13 09:32:07;;;;;;;7.88;1.70;;;17.30;99.90;;;;;;4247474;28;20062;-84
2023/09/13 09:34:12;;;;;;;10.50;1.60;;;17.40;99.90;;;;;;4229260;28;20048;-84
2023/09/13 09:36:13;;;;;;;7.38;1.95;;;17.50;99.90;;;;;;4247701;28;20100;-83
2023/09/13 09:38:24;;;;;;;11.40;2.33;;;17.40;99.90;;;;;;4247714;28;20043;-83
2023/09/13 09:40:25;;;;;;;12.30;2.00;;;17.40;99.90;;;;;;4229629;28;20502;-83
2023/09/13 09:42:29;;;;;;;6.07;1.33;;;17.40;99.90;;;;;;4247808;28;20071;-84
2023/09/13 09:44:30;;;;;;;10.75;2.20;;;17.40;99.90;;;;;;4247903;28;20487;-83
2023/09/13 09:46:32;;;;;;;7.07;1.95;;;17.30;99.90;;;;;;4247340;28;20046;-83
2023/09/13 09:48:33;;;;;;;4.78;1.90;;;17.30;99.90;;;;;;4247698;28;20380;-83
2023/09/13 09:50:34;;;;;;;4.65;1.52;;;17.40;99.90;;;;;;4247777;28;20080;-83
2023/09/13 09:52:34;;;;;;;8.63;1.67;;;17.40;99.90;;;;;;4247736;28;20035;-84
2023/09/13 09:54:37;;;;;;;4.10;1.23;;;17.50;99.90;;;;;;4247658;28;20544;-84
2023/09/13 09:56:40;;;;;;;10.32;1.70;;;17.60;99.90;;;;;;4247676;28;20049;-83
2023/09/13 09:58:41;;;;;;;6.30;1.20;;;17.60;99.90;;;;;;4247805;27;20531;-83
2023/09/13 10:00:45;;;;;;;7.03;2.28;;;17.70;99.90;;;;;;4232007;28;20084;-84
2023/09/13 10:02:47;;;;;;;10.32;1.83;;;17.90;99.90;;;;;;4251053;27;20035;-83
2023/09/13 10:04:51;;;;;;;6.80;1.42;;;18.00;99.90;;;;;;4251043;27;20039;-83
2023/09/13 10:07:00;;;;;;;4.85;1.55;;;18.30;99.90;;;;;;4232862;28;20040;-83
2023/09/13 10:09:04;;;;;;;6.13;1.63;;;18.50;99.90;;;;;;4251158;27;20371;-83
2023/09/13 10:11:05;;;;;;;7.00;1.58;;;18.60;99.90;;;;;;4232217;28;20043;-83
2023/09/13 10:13:06;;;;;;;5.80;1.58;;;18.70;99.90;;;;;;4232868;28;20098;-83
2023/09/13 10:15:08;;;;;;;9.07;2.42;;;18.90;99.90;;;;;;4232408;28;20036;-83
2023/09/13 10:17:10;;;;;;;3.90;1.30;;;19.10;99.90;;;;;;4233802;28;20419;-84
2023/09/13 10:19:12;;;;;;;6.70;1.38;;;19.40;99.90;;;;;;4232457;28;20055;-84
2023/09/13 10:21:24;;;;;;;6.72;1.67;;;19.60;99.90;;;;;;4232178;28;20597;-83
2023/09/13 10:23:38;;;;;;;7.95;1.45;;;19.80;99.90;;;;;;4233103;28;20047;-84
2023/09/13 10:25:41;;;;;;;4.22;1.52;;;20.20;99.90;;;;;;4232437;28;20133;-83
2023/09/13 10:27:46;;;;;;;3.95;1.60;;;20.40;99.90;;;;;;4215272;28;20048;-83
2023/09/13 10:29:56;;;;;;;6.80;1.70;;;20.80;99.90;;;;;;4233447;27;20043;-83
2023/09/13 10:32:02;;;;;;;6.32;1.83;;;21.10;99.90;;;;;;4232661;28;20047;-83
2023/09/13 10:34:08;;;;;;;4.35;1.40;;;21.50;99.90;;;;;;4232033;28;20039;-84